Time;durP1;ratioP1;P1;durP2;ratioP2;P2;SDS_P1;SDS_P2;PMS_P1;PMS_P2;Temp;Humidity;BMP_temperature;BMP_pressure;BME280_temperature;BME280_humidity;BME280_pressure;Samples;Min_cycle;Max_cycle;Signal;HPM_P1;HPM_P2
2024/03/17 00:01:52;;;;;;;12.25;5.38;;;;;;;;;;7571461;19;20048;-72
2024/03/17 00:04:24;;;;;;;8.52;5.30;;;;;;;;;;7577277;19;21606;-73
2024/03/17 00:06:55;;;;;;;8.40;5.18;;;;;;;;;;7575380;19;20094;-72
2024/03/17 00:09:27;;;;;;;10.82;6.25;;;;;;;;;;7558836;19;20022;-73
2024/03/17 00:11:58;;;;;;;8.82;5.63;;;;;;;;;;7557215;19;20154;-72
2024/03/17 00:14:30;;;;;;;8.85;6.00;;;;;;;;;;7562455;19;20542;-73
2024/03/17 00:17:03;;;;;;;8.52;6.10;;;;;;;;;;7559545;19;20054;-72
2024/03/17 00:19:34;;;;;;;8.50;6.10;;;;;;;;;;7548999;19;20018;-73
2024/03/17 00:22:08;;;;;;;8.15;5.43;;;;;;;;;;7548688;19;20839;-73
2024/03/17 00:24:40;;;;;;;12.68;6.45;;;;;;;;;;7568895;19;20037;-73
2024/03/17 00:27:13;;;;;;;9.68;6.07;;;;;;;;;;7567696;19;20018;-73
2024/03/17 00:29:45;;;;;;;7.67;5.30;;;;;;;;;;7553333;19;20080;-73
2024/03/17 00:32:17;;;;;;;8.40;5.20;;;;;;;;;;7551487;19;20271;-72
2024/03/17 00:34:49;;;;;;;9.07;4.95;;;;;;;;;;7565514;19;20142;-73
2024/03/17 00:37:20;;;;;;;9.73;5.47;;;;;;;;;;7566479;19;20113;-72
2024/03/17 00:39:52;;;;;;;7.93;4.60;;;;;;;;;;7560229;19;20294;-72
2024/03/17 00:42:23;;;;;;;8.88;5.05;;;;;;;;;;7551971;19;20046;-73
2024/03/17 00:44:55;;;;;;;8.18;4.85;;;;;;;;;;7557515;19;20615;-73
2024/03/17 00:47:27;;;;;;;8.05;5.05;;;;;;;;;;7552741;19;20015;-72
2024/03/17 00:49:59;;;;;;;8.98;4.75;;;;;;;;;;7557843;19;20578;-73
2024/03/17 00:52:31;;;;;;;7.55;5.03;;;;;;;;;;7563797;19;20023;-73
2024/03/17 00:55:03;;;;;;;10.05;5.00;;;;;;;;;;7569469;19;20031;-73
2024/03/17 00:57:35;;;;;;;8.35;4.88;;;;;;;;;;7557601;19;20200;-74
2024/03/17 01:00:09;;;;;;;8.05;4.85;;;;;;;;;;7550697;19;20029;-73
2024/03/17 01:02:41;;;;;;;8.45;5.10;;;;;;;;;;7567486;19;20101;-73
2024/03/17 01:05:13;;;;;;;7.55;4.50;;;;;;;;;;7555313;19;20010;-73
2024/03/17 01:07:47;;;;;;;5.95;4.28;;;;;;;;;;7560708;19;20627;-73
2024/03/17 01:10:19;;;;;;;9.98;4.68;;;;;;;;;;7558473;19;20010;-73
2024/03/17 01:12:51;;;;;;;7.18;5.00;;;;;;;;;;7555222;19;20049;-72
2024/03/17 01:15:22;;;;;;;8.50;5.15;;;;;;;;;;7561431;19;20022;-73
2024/03/17 01:17:54;;;;;;;8.00;5.05;;;;;;;;;;7534786;19;20040;-73
2024/03/17 01:20:26;;;;;;;7.75;4.38;;;;;;;;;;7539812;19;20018;-72
2024/03/17 01:22:57;;;;;;;10.98;4.60;;;;;;;;;;7555281;19;20024;-73
2024/03/17 01:25:30;;;;;;;6.88;4.75;;;;;;;;;;7562882;19;20018;-73
2024/03/17 01:28:01;;;;;;;7.80;4.20;;;;;;;;;;7574271;19;20090;-73
2024/03/17 01:30:34;;;;;;;11.00;4.60;;;;;;;;;;7562725;19;20018;-73
2024/03/17 01:33:05;;;;;;;8.55;4.68;;;;;;;;;;7557680;19;20014;-73
2024/03/17 01:35:37;;;;;;;6.75;4.47;;;;;;;;;;7550269;19;20030;-72
2024/03/17 01:38:10;;;;;;;8.75;4.30;;;;;;;;;;7551048;19;20015;-73
2024/03/17 01:40:42;;;;;;;7.68;5.18;;;;;;;;;;7556339;19;20102;-73
2024/03/17 01:43:14;;;;;;;7.72;5.13;;;;;;;;;;7554566;19;20507;-73
2024/03/17 01:45:46;;;;;;;7.30;4.60;;;;;;;;;;7550801;19;20487;-73
2024/03/17 01:48:19;;;;;;;10.82;5.75;;;;;;;;;;7561686;19;20022;-73
2024/03/17 01:50:53;;;;;;;10.20;5.25;;;;;;;;;;7547916;19;20568;-73
2024/03/17 01:53:27;;;;;;;12.00;6.05;;;;;;;;;;7542654;19;20014;-73
2024/03/17 01:56:00;;;;;;;10.73;6.63;;;;;;;;;;7554357;19;20507;-73
2024/03/17 01:58:32;;;;;;;9.93;6.32;;;;;;;;;;7564799;19;20679;-73
2024/03/17 02:01:04;;;;;;;11.48;6.85;;;;;;;;;;7564383;19;20022;-73
2024/03/17 02:03:36;;;;;;;9.65;5.45;;;;;;;;;;7562380;19;20014;-73
2024/03/17 02:06:09;;;;;;;10.02;6.05;;;;;;;;;;7565711;19;20074;-73
2024/03/17 02:08:50;;;;;;;8.45;5.03;;;;;;;;;;7578121;19;20022;-73
2024/03/17 02:11:32;;;;;;;9.75;5.50;;;;;;;;;;7547091;19;20023;-73
2024/03/17 02:14:06;;;;;;;7.97;4.97;;;;;;;;;;7565755;19;20014;-73
2024/03/17 02:16:38;;;;;;;7.63;5.45;;;;;;;;;;7558990;19;20715;-72
2024/03/17 02:19:09;;;;;;;9.13;5.68;;;;;;;;;;7569188;19;20015;-72
2024/03/17 02:21:41;;;;;;;9.70;5.53;;;;;;;;;;7555418;19;20018;-73
2024/03/17 02:24:13;;;;;;;9.85;5.60;;;;;;;;;;7562182;19;20194;-73
2024/03/17 02:26:44;;;;;;;7.00;5.22;;;;;;;;;;7560178;19;20021;-73
2024/03/17 02:29:15;;;;;;;8.75;5.00;;;;;;;;;;7567002;19;20010;-74
2024/03/17 02:31:47;;;;;;;9.73;5.25;;;;;;;;;;7573536;19;20019;-73
2024/03/17 02:34:19;;;;;;;9.10;5.65;;;;;;;;;;7576273;19;20015;-74
2024/03/17 02:36:51;;;;;;;10.93;6.18;;;;;;;;;;7563483;19;20019;-74
2024/03/17 02:39:35;;;;;;;11.02;6.20;;;;;;;;;;7545405;19;20053;-74
2024/03/17 02:42:07;;;;;;;12.55;6.57;;;;;;;;;;7561581;19;20038;-74
2024/03/17 02:44:40;;;;;;;11.02;7.18;;;;;;;;;;7564012;19;20049;-74
2024/03/17 02:47:14;;;;;;;10.95;6.38;;;;;;;;;;7559011;19;20090;-73
2024/03/17 02:49:49;;;;;;;10.20;5.38;;;;;;;;;;7568373;19;20018;-73
2024/03/17 02:52:21;;;;;;;10.20;5.45;;;;;;;;;;7559335;19;20528;-73
2024/03/17 02:54:55;;;;;;;13.88;5.72;;;;;;;;;;7565582;19;20033;-73
2024/03/17 02:57:32;;;;;;;9.38;5.60;;;;;;;;;;7562558;19;20026;-74
2024/03/17 03:00:05;;;;;;;9.00;5.60;;;;;;;;;;7560955;19;21455;-73
2024/03/17 03:02:37;;;;;;;;;;;;;;;;;;7569740;19;20234;-74
2024/03/17 03:05:09;;;;;;;8.00;5.10;;;;;;;;;;7557659;19;20332;-73
2024/03/17 03:07:40;;;;;;;9.40;5.38;;;;;;;;;;7570403;19;20021;-73
2024/03/17 03:10:12;;;;;;;9.77;5.82;;;;;;;;;;7559854;19;20037;-73
2024/03/17 03:12:43;;;;;;;10.35;5.38;;;;;;;;;;7527336;19;20050;-73
2024/03/17 03:15:15;;;;;;;10.90;4.88;;;;;;;;;;7558716;19;20477;-73
2024/03/17 03:17:46;;;;;;;10.38;5.25;;;;;;;;;;7568102;19;20116;-73
2024/03/17 03:20:18;;;;;;;8.57;5.80;;;;;;;;;;7563554;19;20018;-73
2024/03/17 03:22:49;;;;;;;7.40;5.00;;;;;;;;;;7532164;19;20019;-73
2024/03/17 03:25:21;;;;;;;10.00;5.78;;;;;;;;;;7539856;19;20701;-73
2024/03/17 03:27:53;;;;;;;12.88;6.15;;;;;;;;;;7563672;19;20824;-73
2024/03/17 03:30:25;;;;;;;9.07;4.70;;;;;;;;;;7555224;19;20010;-74
2024/03/17 03:32:56;;;;;;;9.35;4.95;;;;;;;;;;7554963;19;20512;-73
2024/03/17 03:35:31;;;;;;;9.77;5.28;;;;;;;;;;7556741;19;20018;-73
2024/03/17 03:38:03;;;;;;;11.38;5.38;;;;;;;;;;7543543;19;20025;-73
2024/03/17 03:40:35;;;;;;;13.63;6.20;;;;;;;;;;7573680;19;20022;-74
2024/03/17 03:43:07;;;;;;;7.78;4.63;;;;;;;;;;7574560;19;20018;-73
2024/03/17 03:45:38;;;;;;;10.77;5.75;;;;;;;;;;7581523;19;20048;-73
2024/03/17 03:48:10;;;;;;;7.68;4.93;;;;;;;;;;7574365;19;20400;-73
2024/03/17 03:50:42;;;;;;;8.25;5.63;;;;;;;;;;7576527;19;20799;-73
2024/03/17 03:53:13;;;;;;;8.60;5.40;;;;;;;;;;7570700;19;20033;-73
2024/03/17 03:55:45;;;;;;;7.85;5.18;;;;;;;;;;7534148;19;20015;-73
2024/03/17 03:58:16;;;;;;;9.90;5.05;;;;;;;;;;7558516;19;20006;-74
2024/03/17 04:00:48;;;;;;;9.10;4.85;;;;;;;;;;7580636;19;20019;-73
2024/03/17 04:03:20;;;;;;;8.52;5.28;;;;;;;;;;7582688;19;20042;-73
2024/03/17 04:05:53;;;;;;;9.88;5.30;;;;;;;;;;7565653;19;20597;-73
2024/03/17 04:08:25;;;;;;;;;;;;;;;;;;7571678;19;20019;-74
2024/03/17 04:10:57;;;;;;;8.35;5.20;;;;;;;;;;7559431;19;19919;-73
2024/03/17 04:13:33;;;;;;;9.40;6.63;;;;;;;;;;7564062;19;20049;-74
2024/03/17 04:16:06;;;;;;;10.65;5.00;;;;;;;;;;7575144;19;20014;-73
2024/03/17 04:18:38;;;;;;;9.93;4.80;;;;;;;;;;7543874;19;20022;-73
2024/03/17 04:21:11;;;;;;;7.47;4.80;;;;;;;;;;7580731;19;20785;-73
2024/03/17 04:23:42;;;;;;;8.23;5.10;;;;;;;;;;7568606;19;20031;-73
2024/03/17 04:26:14;;;;;;;9.68;4.57;;;;;;;;;;7578825;19;20031;-73
2024/03/17 04:28:46;;;;;;;9.38;5.13;;;;;;;;;;7571803;19;20468;-73
2024/03/17 04:31:18;;;;;;;8.32;5.20;;;;;;;;;;7583631;19;20069;-73
2024/03/17 04:33:49;;;;;;;6.93;4.72;;;;;;;;;;7570471;19;20007;-73
2024/03/17 04:36:22;;;;;;;8.23;5.32;;;;;;;;;;7570369;19;20014;-73
2024/03/17 04:38:54;;;;;;;9.73;4.85;;;;;;;;;;7554987;19;20017;-73
2024/03/17 04:41:26;;;;;;;9.23;5.68;;;;;;;;;;7571743;19;20011;-73
2024/03/17 04:43:58;;;;;;;9.63;4.70;;;;;;;;;;7555866;19;20042;-73
2024/03/17 04:46:30;;;;;;;8.88;5.10;;;;;;;;;;7574692;19;20097;-73
2024/03/17 04:49:03;;;;;;;9.57;5.00;;;;;;;;;;7568938;19;20041;-73
2024/03/17 04:51:35;;;;;;;9.00;5.15;;;;;;;;;;7566335;19;20933;-73
2024/03/17 04:54:07;;;;;;;10.45;5.10;;;;;;;;;;7568603;19;20661;-75
2024/03/17 04:56:38;;;;;;;7.53;5.22;;;;;;;;;;7579084;19;20015;-73
2024/03/17 04:59:09;;;;;;;7.00;5.10;;;;;;;;;;7569542;19;20098;-72
2024/03/17 05:01:41;;;;;;;7.10;5.03;;;;;;;;;;7571268;19;20675;-75
2024/03/17 05:04:13;;;;;;;5.95;4.75;;;;;;;;;;7571073;19;20010;-75
2024/03/17 05:06:48;;;;;;;7.72;4.90;;;;;;;;;;7567298;19;21977;-72
2024/03/17 05:09:20;;;;;;;7.82;5.15;;;;;;;;;;7556167;19;20363;-74
2024/03/17 05:11:52;;;;;;;8.25;5.38;;;;;;;;;;7577754;19;20565;-74
2024/03/17 05:14:25;;;;;;;9.90;5.70;;;;;;;;;;7574891;19;20030;-73
2024/03/17 05:16:57;;;;;;;9.18;5.53;;;;;;;;;;7592252;19;20025;-74
2024/03/17 05:19:29;;;;;;;8.13;4.90;;;;;;;;;;7582896;19;20350;-75
2024/03/17 05:22:01;;;;;;;9.60;5.38;;;;;;;;;;7572186;19;20022;-74
2024/03/17 05:24:32;;;;;;;10.40;5.90;;;;;;;;;;7588074;19;20873;-74
2024/03/17 05:27:04;;;;;;;7.07;4.97;;;;;;;;;;7579781;19;20090;-74
2024/03/17 05:29:37;;;;;;;8.88;5.55;;;;;;;;;;7587770;19;20022;-74
2024/03/17 05:32:09;;;;;;;8.88;5.60;;;;;;;;;;7571818;19;20015;-74
2024/03/17 05:34:42;;;;;;;10.10;5.88;;;;;;;;;;7586143;19;21106;-74
2024/03/17 05:37:14;;;;;;;7.93;5.30;;;;;;;;;;7577072;19;20015;-73
2024/03/17 05:39:46;;;;;;;10.90;5.82;;;;;;;;;;7578245;19;20938;-73
2024/03/17 05:42:19;;;;;;;9.10;5.80;;;;;;;;;;7569926;19;21015;-72
2024/03/17 05:44:53;;;;;;;9.77;5.22;;;;;;;;;;7584324;19;20439;-72
2024/03/17 05:47:25;;;;;;;8.32;5.47;;;;;;;;;;7579633;19;20486;-72
2024/03/17 05:49:56;;;;;;;8.50;5.65;;;;;;;;;;7582543;19;20026;-72
2024/03/17 05:52:28;;;;;;;7.15;5.18;;;;;;;;;;7578870;19;20766;-73
2024/03/17 05:55:00;;;;;;;7.03;4.80;;;;;;;;;;7563976;19;20876;-73
2024/03/17 05:57:32;;;;;;;10.80;5.78;;;;;;;;;;7587229;19;20018;-72
2024/03/17 06:00:04;;;;;;;8.43;5.03;;;;;;;;;;7566633;19;20019;-72
2024/03/17 06:02:46;;;;;;;9.27;6.05;;;;;;;;;;7581241;19;20367;-73
2024/03/17 06:05:18;;;;;;;7.30;5.28;;;;;;;;;;7575450;19;20018;-72
2024/03/17 06:07:49;;;;;;;8.90;5.32;;;;;;;;;;7562698;19;20018;-73
2024/03/17 06:10:24;;;;;;;9.10;5.80;;;;;;;;;;7584424;19;20026;-73
2024/03/17 06:12:56;;;;;;;8.85;5.80;;;;;;;;;;7572651;19;20106;-72
2024/03/17 06:15:27;;;;;;;12.75;5.18;;;;;;;;;;7582120;19;20029;-74
2024/03/17 06:18:01;;;;;;;8.82;4.85;;;;;;;;;;7580644;19;20026;-73
2024/03/17 06:20:33;;;;;;;8.70;5.07;;;;;;;;;;7581083;19;20504;-72
2024/03/17 06:23:04;;;;;;;7.65;5.05;;;;;;;;;;7573281;19;20010;-73
2024/03/17 06:25:43;;;;;;;10.82;5.70;;;;;;;;;;7589280;19;20015;-72
2024/03/17 06:28:17;;;;;;;10.07;6.25;;;;;;;;;;7563454;19;20725;-72
2024/03/17 06:30:56;;;;;;;10.07;6.15;;;;;;;;;;7577377;19;20015;-72
2024/03/17 06:33:32;;;;;;;14.52;6.63;;;;;;;;;;7566053;19;21435;-72
2024/03/17 06:36:04;;;;;;;10.68;6.60;;;;;;;;;;7579050;19;20782;-72
2024/03/17 06:38:36;;;;;;;10.27;7.17;;;;;;;;;;7582567;19;20018;-72
2024/03/17 06:41:07;;;;;;;8.52;6.07;;;;;;;;;;7579464;19;20034;-72
2024/03/17 06:43:39;;;;;;;13.65;7.15;;;;;;;;;;7584397;19;20055;-72
2024/03/17 06:46:11;;;;;;;11.68;7.50;;;;;;;;;;7593552;19;20598;-73
2024/03/17 06:48:42;;;;;;;11.70;7.07;;;;;;;;;;7586304;19;20018;-71
2024/03/17 06:51:14;;;;;;;10.27;7.13;;;;;;;;;;7572480;19;20082;-73
2024/03/17 06:53:45;;;;;;;9.73;6.80;;;;;;;;;;7579573;19;20015;-72
2024/03/17 06:56:18;;;;;;;12.93;7.88;;;;;;;;;;7573229;19;20018;-72
2024/03/17 06:58:51;;;;;;;11.18;7.43;;;;;;;;;;7591845;19;20105;-72
2024/03/17 07:01:23;;;;;;;14.45;7.03;;;;;;;;;;7591915;19;20026;-72
2024/03/17 07:03:55;;;;;;;10.02;6.72;;;;;;;;;;7584565;19;20044;-72
2024/03/17 07:06:27;;;;;;;10.82;6.38;;;;;;;;;;7580836;19;20037;-73
2024/03/17 07:08:58;;;;;;;13.35;7.63;;;;;;;;;;7585236;19;20018;-72
2024/03/17 07:11:30;;;;;;;11.13;7.47;;;;;;;;;;7590981;19;20029;-71
2024/03/17 07:14:02;;;;;;;14.38;7.07;;;;;;;;;;7574911;19;20023;-72
2024/03/17 07:16:34;;;;;;;12.13;7.18;;;;;;;;;;7571697;19;20029;-72
2024/03/17 07:19:06;;;;;;;10.80;6.38;;;;;;;;;;7587221;19;20517;-72
2024/03/17 07:21:37;;;;;;;11.50;7.03;;;;;;;;;;7570974;19;20018;-72
2024/03/17 07:24:09;;;;;;;10.77;6.63;;;;;;;;;;7578681;19;20405;-72
2024/03/17 07:26:41;;;;;;;10.65;6.80;;;;;;;;;;7581092;19;21849;-72
2024/03/17 07:29:13;;;;;;;10.40;6.75;;;;;;;;;;7569823;19;21137;-71
2024/03/17 07:31:44;;;;;;;10.35;6.05;;;;;;;;;;7582179;19;20053;-72
2024/03/17 07:34:17;;;;;;;8.82;6.05;;;;;;;;;;7578867;19;21384;-72
2024/03/17 07:36:48;;;;;;;7.72;5.78;;;;;;;;;;7584863;19;20096;-73
2024/03/17 07:39:20;;;;;;;9.63;5.70;;;;;;;;;;7590432;19;20393;-73
2024/03/17 07:41:52;;;;;;;8.38;5.70;;;;;;;;;;7581650;19;20018;-72
2024/03/17 07:44:23;;;;;;;8.45;5.50;;;;;;;;;;7589862;19;20010;-73
2024/03/17 07:46:55;;;;;;;8.40;5.50;;;;;;;;;;7578916;19;20688;-73
2024/03/17 07:49:27;;;;;;;7.18;5.25;;;;;;;;;;7573992;19;20444;-73
2024/03/17 07:51:58;;;;;;;8.82;5.43;;;;;;;;;;7592119;19;20015;-72
2024/03/17 07:54:30;;;;;;;7.55;4.70;;;;;;;;;;7584867;19;20014;-73
2024/03/17 07:57:02;;;;;;;8.93;5.40;;;;;;;;;;7588209;19;20026;-74
2024/03/17 07:59:33;;;;;;;7.28;5.30;;;;;;;;;;7586917;19;20029;-71
2024/03/17 08:02:05;;;;;;;7.20;5.10;;;;;;;;;;7580120;19;20019;-71
2024/03/17 08:04:39;;;;;;;7.00;4.75;;;;;;;;;;7586247;19;21119;-72
2024/03/17 08:07:11;;;;;;;6.35;4.30;;;;;;;;;;7586403;19;20010;-72
2024/03/17 08:09:43;;;;;;;8.80;4.05;;;;;;;;;;7578699;19;20053;-72
2024/03/17 08:12:15;;;;;;;6.18;4.13;;;;;;;;;;7573296;19;20042;-72
2024/03/17 08:14:46;;;;;;;6.05;3.65;;;;;;;;;;7592521;19;20023;-72
2024/03/17 08:17:17;;;;;;;5.18;3.60;;;;;;;;;;7583565;19;20014;-72
2024/03/17 08:19:49;;;;;;;6.82;4.00;;;;;;;;;;7577425;19;20580;-73
2024/03/17 08:22:21;;;;;;;6.47;3.78;;;;;;;;;;7555826;19;20086;-72
2024/03/17 08:24:53;;;;;;;6.25;3.22;;;;;;;;;;7575866;19;20018;-72
2024/03/17 08:27:24;;;;;;;5.85;3.60;;;;;;;;;;7592464;19;20015;-73
2024/03/17 08:29:56;;;;;;;4.28;3.58;;;;;;;;;;7589939;19;20593;-73
2024/03/17 08:32:28;;;;;;;5.22;3.75;;;;;;;;;;7585461;19;20018;-72
2024/03/17 08:34:59;;;;;;;5.78;4.03;;;;;;;;;;7555668;19;20022;-72
2024/03/17 08:37:31;;;;;;;5.15;3.80;;;;;;;;;;7580498;19;20216;-72
2024/03/17 08:40:06;;;;;;;3.97;3.15;;;;;;;;;;7570743;19;20874;-72
2024/03/17 08:42:37;;;;;;;5.43;3.60;;;;;;;;;;7569845;19;20014;-72
2024/03/17 08:45:12;;;;;;;5.18;3.65;;;;;;;;;;7575747;19;20056;-72
2024/03/17 08:47:44;;;;;;;4.65;3.28;;;;;;;;;;7561458;19;20029;-72
2024/03/17 08:50:15;;;;;;;4.60;3.08;;;;;;;;;;7534506;19;20027;-73
2024/03/17 08:52:47;;;;;;;4.45;2.90;;;;;;;;;;7547723;19;20543;-72
2024/03/17 08:55:18;;;;;;;4.45;3.42;;;;;;;;;;7552022;19;20013;-72
2024/03/17 08:57:50;;;;;;;4.30;3.10;;;;;;;;;;7558921;19;20027;-72
2024/03/17 09:00:22;;;;;;;5.25;3.10;;;;;;;;;;7564288;19;20869;-72
2024/03/17 09:02:53;;;;;;;6.07;3.30;;;;;;;;;;7551976;19;20002;-74
2024/03/17 09:05:25;;;;;;;5.70;2.95;;;;;;;;;;7549067;19;20176;-74
2024/03/17 09:07:56;;;;;;;4.65;3.00;;;;;;;;;;7551550;19;20021;-72
2024/03/17 09:10:28;;;;;;;5.78;2.90;;;;;;;;;;7558923;19;20027;-72
2024/03/17 09:13:00;;;;;;;5.03;3.38;;;;;;;;;;7543277;19;20025;-73
2024/03/17 09:15:31;;;;;;;4.10;3.05;;;;;;;;;;7557248;19;20022;-73
2024/03/17 09:18:03;;;;;;;5.13;2.83;;;;;;;;;;7557354;19;20014;-73
2024/03/17 09:20:35;;;;;;;4.03;2.70;;;;;;;;;;7551831;19;20032;-73
2024/03/17 09:23:07;;;;;;;5.07;2.80;;;;;;;;;;7552342;19;20018;-73
2024/03/17 09:25:38;;;;;;;3.85;2.70;;;;;;;;;;7547952;19;20018;-72
2024/03/17 09:28:11;;;;;;;3.75;2.65;;;;;;;;;;7559629;19;20011;-73
2024/03/17 09:30:47;;;;;;;4.07;2.50;;;;;;;;;;7546424;19;20698;-73
2024/03/17 09:33:26;;;;;;;5.50;2.60;;;;;;;;;;7554897;19;20015;-73
2024/03/17 09:36:00;;;;;;;3.70;2.45;;;;;;;;;;7535019;19;20014;-75
2024/03/17 09:38:33;;;;;;;4.30;2.55;;;;;;;;;;7563200;19;20021;-78
2024/03/17 09:41:06;;;;;;;5.18;2.60;;;;;;;;;;7542834;19;20289;-75
2024/03/17 09:43:38;;;;;;;5.45;2.45;;;;;;;;;;7432304;19;20026;-75
2024/03/17 09:46:10;;;;;;;5.85;2.60;;;;;;;;;;7547987;19;20025;-75
2024/03/17 09:48:43;;;;;;;2.10;1.90;;;;;;;;;;7533732;19;20019;-75
2024/03/17 09:51:36;;;;;;;2.95;1.67;;;;;;;;;;7518325;19;20026;-74
2024/03/17 09:54:16;;;;;;;5.93;2.10;;;;;;;;;;7520216;19;20014;-74
2024/03/17 09:56:47;;;;;;;4.90;2.30;;;;;;;;;;7525718;19;20887;-75
2024/03/17 09:59:20;;;;;;;2.83;1.80;;;;;;;;;;7551537;19;20029;-74
2024/03/17 10:01:52;;;;;;;3.90;1.73;;;;;;;;;;7501001;19;20842;-76
2024/03/17 10:04:33;;;;;;;4.22;1.65;;;;;;;;;;7532995;19;20014;-75
2024/03/17 10:07:05;;;;;;;3.13;1.60;;;;;;;;;;7475003;19;20365;-74
2024/03/17 10:09:37;;;;;;;5.60;1.50;;;;;;;;;;7517151;19;20018;-73
2024/03/17 10:12:28;;;;;;;3.17;1.45;;;;;;;;;;7540752;19;20018;-74
2024/03/17 10:15:00;;;;;;;4.50;1.55;;;;;;;;;;7531162;19;20026;-73
2024/03/17 10:17:35;;;;;;;2.35;1.38;;;;;;;;;;7527972;19;20661;-74
2024/03/17 10:20:16;;;;;;;3.75;1.50;;;;;;;;;;7544957;19;20015;-73
2024/03/17 10:23:01;;;;;;;4.18;1.27;;;;;;;;;;7548157;19;20030;-73
2024/03/17 10:25:34;;;;;;;3.25;1.70;;;;;;;;;;7542489;19;20526;-74
2024/03/17 10:28:12;;;;;;;4.20;1.50;;;;;;;;;;7531730;19;20025;-74
2024/03/17 10:30:58;;;;;;;5.00;1.70;;;;;;;;;;7512281;19;20018;-74
2024/03/17 10:33:31;;;;;;;5.20;1.33;;;;;;;;;;7511149;19;20107;-74
2024/03/17 10:36:05;;;;;;;3.17;1.23;;;;;;;;;;7514404;19;20022;-74
2024/03/17 10:38:37;;;;;;;6.68;1.52;;;;;;;;;;7504895;19;21718;-74
2024/03/17 10:41:12;;;;;;;6.95;2.00;;;;;;;;;;7524861;19;20018;-74
2024/03/17 10:43:44;;;;;;;3.63;1.30;;;;;;;;;;7522934;19;20037;-73
2024/03/17 10:46:17;;;;;;;3.72;1.30;;;;;;;;;;7530652;19;20017;-74
2024/03/17 10:48:49;;;;;;;6.30;1.60;;;;;;;;;;7518964;19;20018;-73
2024/03/17 10:51:22;;;;;;;2.57;1.57;;;;;;;;;;7515253;19;20057;-74
2024/03/17 10:53:56;;;;;;;3.75;1.20;;;;;;;;;;7519958;19;20027;-73
2024/03/17 10:56:29;;;;;;;3.42;1.55;;;;;;;;;;7488409;19;20011;-74
2024/03/17 10:59:03;;;;;;;3.53;1.42;;;;;;;;;;7509375;19;20109;-73
2024/03/17 11:01:35;;;;;;;;;;;;;;;;;;7532585;19;20011;-75
2024/03/17 11:04:11;;;;;;;4.55;1.52;;;;;;;;;;7518748;19;20888;-74
2024/03/17 11:06:46;;;;;;;5.38;1.60;;;;;;;;;;7535485;19;20971;-74
2024/03/17 11:09:18;;;;;;;5.85;1.58;;;;;;;;;;7525037;19;20108;-75
2024/03/17 11:11:50;;;;;;;4.32;1.30;;;;;;;;;;7511616;19;20033;-75
2024/03/17 11:14:24;;;;;;;2.85;1.17;;;;;;;;;;7529042;19;20799;-75
2024/03/17 11:16:56;;;;;;;2.85;1.20;;;;;;;;;;7549047;19;20015;-75
2024/03/17 11:19:28;;;;;;;4.03;1.35;;;;;;;;;;7526332;19;20007;-75
2024/03/17 11:22:20;;;;;;;3.30;1.20;;;;;;;;;;7527627;19;21205;-76
2024/03/17 11:24:54;;;;;;;3.88;1.30;;;;;;;;;;7530319;19;20022;-74
2024/03/17 11:27:42;;;;;;;4.03;1.42;;;;;;;;;;7528897;19;20211;-73
2024/03/17 11:30:33;;;;;;;6.72;1.42;;;;;;;;;;7499580;19;20022;-75
2024/03/17 11:33:25;;;;;;;3.90;1.30;;;;;;;;;;7456680;19;20030;-75
2024/03/17 11:36:16;;;;;;;2.67;1.30;;;;;;;;;;7464358;19;20989;-75
2024/03/17 11:39:16;;;;;;;3.95;1.50;;;;;;;;;;7530558;19;20022;-75
2024/03/17 11:41:49;;;;;;;3.67;1.50;;;;;;;;;;7513706;19;20018;-75
2024/03/17 11:44:21;;;;;;;4.53;1.30;;;;;;;;;;7552422;19;20029;-75
2024/03/17 11:46:59;;;;;;;4.05;1.20;;;;;;;;;;7505187;19;20939;-75
2024/03/17 11:49:31;;;;;;;3.10;1.48;;;;;;;;;;7533369;19;20024;-76
2024/03/17 11:52:03;;;;;;;2.70;1.55;;;;;;;;;;7491754;19;20018;-73
2024/03/17 11:54:36;;;;;;;2.50;1.27;;;;;;;;;;7511820;19;20138;-74
2024/03/17 11:57:12;;;;;;;5.43;1.80;;;;;;;;;;7523274;19;20014;-75
2024/03/17 11:59:46;;;;;;;11.20;1.73;;;;;;;;;;7462596;19;20138;-74
2024/03/17 12:02:22;;;;;;;3.67;1.42;;;;;;;;;;7474585;19;20014;-75
2024/03/17 12:04:57;;;;;;;2.60;1.58;;;;;;;;;;7529243;19;20041;-75
2024/03/17 12:07:30;;;;;;;4.70;1.58;;;;;;;;;;7533628;19;20018;-75
2024/03/17 12:10:03;;;;;;;3.17;1.40;;;;;;;;;;7562388;19;20026;-75
2024/03/17 12:12:35;;;;;;;2.67;1.30;;;;;;;;;;7520468;19;20090;-75
2024/03/17 12:15:16;;;;;;;4.00;1.60;;;;;;;;;;7525519;19;20023;-75
2024/03/17 12:28:29;;;;;;;7.43;1.85;;;;;;;;;;7556227;19;287186;-75
2024/03/17 12:31:01;;;;;;;3.53;1.67;;;;;;;;;;7587074;19;20018;-75
2024/03/17 12:33:34;;;;;;;5.38;1.70;;;;;;;;;;7557777;19;20036;-74
2024/03/17 12:36:07;;;;;;;2.92;1.35;;;;;;;;;;7577370;19;20505;-74
2024/03/17 12:38:39;;;;;;;4.05;1.60;;;;;;;;;;7585593;19;20010;-74
2024/03/17 12:41:17;;;;;;;4.55;1.48;;;;;;;;;;7557022;19;20086;-75
2024/03/17 12:43:49;;;;;;;4.47;1.30;;;;;;;;;;7558013;19;20085;-74
2024/03/17 12:46:21;;;;;;;6.18;1.33;;;;;;;;;;7568834;19;20010;-74
2024/03/17 12:48:59;;;;;;;2.83;0.95;;;;;;;;;;7566189;19;20024;-74
2024/03/17 12:51:35;;;;;;;2.90;1.27;;;;;;;;;;7570320;19;20067;-75
2024/03/17 12:54:14;;;;;;;3.55;1.38;;;;;;;;;;7577221;19;20991;-74
2024/03/17 13:02:30;;;;;;;2.75;0.80;;;;;;;;;;7578645;19;20852;-75
2024/03/17 13:05:15;;;;;;;5.18;1.20;;;;;;;;;;7589728;19;20034;-74
2024/03/17 13:07:47;;;;;;;4.00;1.35;;;;;;;;;;7551932;19;20911;-74
2024/03/17 13:10:20;;;;;;;4.07;1.45;;;;;;;;;;7564371;19;20698;-74
2024/03/17 13:13:05;;;;;;;3.38;1.20;;;;;;;;;;7569941;19;20645;-75
2024/03/17 13:15:37;;;;;;;5.43;1.58;;;;;;;;;;7589802;19;20844;-75
2024/03/17 13:18:09;;;;;;;3.35;1.42;;;;;;;;;;7547873;19;20304;-74
2024/03/17 13:20:42;;;;;;;5.63;1.50;;;;;;;;;;7558156;19;21241;-75
2024/03/17 13:23:14;;;;;;;3.45;1.45;;;;;;;;;;7550821;19;21225;-75
2024/03/17 13:25:46;;;;;;;4.57;1.85;;;;;;;;;;7567168;19;20034;-75
2024/03/17 13:28:18;;;;;;;4.85;1.73;;;;;;;;;;7573205;19;20023;-74
2024/03/17 13:30:49;;;;;;;4.18;1.25;;;;;;;;;;7560588;19;20022;-75
2024/03/17 13:33:21;;;;;;;7.70;1.70;;;;;;;;;;6542154;19;10000910;-75
2024/03/17 13:35:53;;;;;;;3.95;1.65;;;;;;;;;;7561142;19;20995;-74
2024/03/17 13:38:24;;;;;;;3.97;1.40;;;;;;;;;;7548586;19;20065;-75
2024/03/17 13:40:56;;;;;;;5.68;1.55;;;;;;;;;;7552037;19;20706;-75
2024/03/17 13:43:27;;;;;;;4.32;1.30;;;;;;;;;;7561999;19;20014;-76
2024/03/17 13:45:59;;;;;;;3.53;1.70;;;;;;;;;;7541043;19;20010;-74
2024/03/17 13:48:33;;;;;;;5.32;1.98;;;;;;;;;;7521657;19;20018;-75
2024/03/17 13:51:05;;;;;;;4.60;1.90;;;;;;;;;;7558742;19;20015;-74
2024/03/17 13:53:37;;;;;;;3.55;1.70;;;;;;;;;;7562212;19;20050;-75
2024/03/17 13:56:12;;;;;;;4.97;1.60;;;;;;;;;;7566997;19;20038;-73
2024/03/17 13:58:44;;;;;;;5.00;1.58;;;;;;;;;;7544986;19;20014;-74
2024/03/17 14:01:16;;;;;;;5.65;1.55;;;;;;;;;;7562956;19;20685;-74
2024/03/17 14:03:47;;;;;;;5.15;1.80;;;;;;;;;;7571383;19;20027;-74
2024/03/17 14:06:19;;;;;;;4.22;1.40;;;;;;;;;;7560403;19;20018;-74
2024/03/17 14:08:51;;;;;;;2.80;1.38;;;;;;;;;;7562361;19;20026;-74
2024/03/17 14:11:22;;;;;;;6.32;1.63;;;;;;;;;;7538923;19;20019;-74
2024/03/17 14:13:54;;;;;;;4.72;1.65;;;;;;;;;;7537760;19;20018;-75
2024/03/17 14:16:26;;;;;;;3.20;1.30;;;;;;;;;;7546854;19;20014;-75
2024/03/17 14:18:58;;;;;;;1.95;0.90;;;;;;;;;;7551050;19;20021;-74
2024/03/17 14:21:30;;;;;;;5.10;1.60;;;;;;;;;;7538778;19;20097;-75
2024/03/17 14:24:06;;;;;;;3.92;1.10;;;;;;;;;;7553743;19;20682;-75
2024/03/17 14:26:37;;;;;;;2.65;1.50;;;;;;;;;;7558663;19;20026;-74
2024/03/17 14:29:09;;;;;;;7.95;1.67;;;;;;;;;;7563388;19;20046;-75
2024/03/17 14:31:43;;;;;;;4.55;1.50;;;;;;;;;;7556529;19;20652;-75
2024/03/17 14:34:15;;;;;;;3.95;1.40;;;;;;;;;;7520941;19;20010;-74
2024/03/17 14:36:48;;;;;;;5.07;1.48;;;;;;;;;;7554200;19;20025;-74
2024/03/17 14:39:19;;;;;;;3.70;1.60;;;;;;;;;;7554026;19;20067;-75
2024/03/17 14:41:51;;;;;;;3.17;1.33;;;;;;;;;;7556592;19;20014;-75
2024/03/17 14:44:22;;;;;;;4.47;1.38;;;;;;;;;;7569514;19;21093;-74
2024/03/17 14:46:55;;;;;;;4.78;1.52;;;;;;;;;;7555443;19;20383;-74
2024/03/17 14:49:27;;;;;;;4.05;1.45;;;;;;;;;;7546719;19;20700;-75
2024/03/17 14:51:59;;;;;;;2.33;1.35;;;;;;;;;;7547584;19;20014;-75
2024/03/17 14:54:30;;;;;;;5.13;1.48;;;;;;;;;;7506692;19;20026;-75
2024/03/17 14:57:02;;;;;;;2.08;1.10;;;;;;;;;;7544432;19;20020;-74
2024/03/17 14:59:34;;;;;;;4.30;1.40;;;;;;;;;;7543707;19;20011;-75
2024/03/17 15:02:06;;;;;;;7.40;1.45;;;;;;;;;;7542503;19;21293;-75
2024/03/17 15:04:37;;;;;;;4.05;1.58;;;;;;;;;;7561941;19;20025;-75
2024/03/17 15:07:09;;;;;;;3.47;1.48;;;;;;;;;;7579344;19;20348;-75
2024/03/17 15:09:41;;;;;;;4.93;1.30;;;;;;;;;;7570131;19;20014;-74
2024/03/17 15:12:13;;;;;;;6.35;1.52;;;;;;;;;;7570618;19;20018;-74
2024/03/17 15:14:47;;;;;;;3.28;1.45;;;;;;;;;;7582672;19;20022;-76
2024/03/17 15:17:19;;;;;;;4.93;1.60;;;;;;;;;;7570019;19;20022;-75
2024/03/17 15:19:50;;;;;;;5.95;1.90;;;;;;;;;;7561539;19;20026;-76
2024/03/17 15:22:22;;;;;;;4.85;1.88;;;;;;;;;;7556225;19;20103;-75
2024/03/17 15:24:54;;;;;;;5.13;1.80;;;;;;;;;;7572175;19;20821;-76
2024/03/17 15:27:25;;;;;;;8.40;1.42;;;;;;;;;;7586961;19;20685;-75
2024/03/17 15:29:57;;;;;;;5.75;1.52;;;;;;;;;;7547388;19;20029;-74
2024/03/17 15:32:28;;;;;;;7.10;2.85;;;;;;;;;;7586975;19;20031;-74